Time;durP1;ratioP1;P1;durP2;ratioP2;P2;SDS_P1;SDS_P2;PMS_P1;PMS_P2;Temp;Humidity;BMP_temperature;BMP_pressure;BME280_temperature;BME280_humidity;BME280_pressure;Samples;Min_cycle;Max_cycle;Signal;HPM_P1;HPM_P2
2022/02/01 00:00:43;;;;;;;11.68;0.77;;;2.90;99.90;;;;;;6187448;23;20017;-86
2022/02/01 00:03:12;;;;;;;10.38;1.45;;;2.80;99.90;;;;;;6186629;23;20382;-86
2022/02/01 00:10:47;;;;;;;17.05;1.23;;;2.80;99.90;;;;;;6187619;23;20457;-89
2022/02/01 00:37:40;;;;;;;15.60;1.23;;;2.90;99.90;;;;;;6186726;23;20017;-86
2022/02/01 00:40:12;;;;;;;9.48;0.63;;;2.90;99.90;;;;;;6188266;23;20004;-88
2022/02/01 00:42:37;;;;;;;15.23;0.50;;;2.90;99.90;;;;;;6161820;23;20043;-87
2022/02/01 00:45:04;;;;;;;15.30;0.70;;;2.90;99.90;;;;;;6162591;23;20008;-87
2022/02/01 00:47:30;;;;;;;11.68;0.60;;;2.90;99.90;;;;;;6162154;23;20017;-86
2022/02/01 00:49:55;;;;;;;12.10;0.50;;;2.90;99.90;;;;;;6163139;23;20016;-88
2022/02/01 00:52:21;;;;;;;17.55;0.60;;;2.90;99.90;;;;;;6187695;23;20020;-84
2022/02/01 00:54:46;;;;;;;14.93;0.73;;;2.90;99.90;;;;;;6186626;23;20016;-87
2022/02/01 00:57:13;;;;;;;9.63;0.70;;;2.90;99.90;;;;;;6162303;23;20047;-88
2022/02/01 00:59:39;;;;;;;15.30;0.63;;;2.90;99.90;;;;;;6162596;23;20017;-87
2022/02/01 01:02:05;;;;;;;11.25;0.55;;;2.90;99.90;;;;;;6162689;23;20019;-86
2022/02/01 01:04:30;;;;;;;8.30;0.50;;;2.90;99.90;;;;;;6161670;23;20017;-86
2022/02/01 01:06:56;;;;;;;10.90;0.60;;;2.90;99.90;;;;;;6162601;23;20020;-87
2022/02/01 01:09:22;;;;;;;13.20;0.68;;;2.90;99.90;;;;;;6187277;23;20009;-88
2022/02/01 01:11:52;;;;;;;11.98;1.10;;;2.90;99.90;;;;;;6162356;23;20504;-86
2022/02/01 01:14:51;;;;;;;7.47;0.40;;;2.90;99.90;;;;;;6162496;23;20015;-87
2022/02/01 01:18:21;;;;;;;18.05;0.70;;;2.90;99.90;;;;;;6187203;23;20011;-87
2022/02/01 01:44:44;;;;;;;7.65;0.55;;;2.90;99.90;;;;;;6186313;23;20032;-89
2022/02/01 01:55:24;;;;;;;8.35;0.43;;;2.90;99.90;;;;;;6187759;23;20118;-88
2022/02/01 01:57:50;;;;;;;9.32;1.25;;;2.90;99.90;;;;;;6162068;23;20009;-88
2022/02/01 02:00:42;;;;;;;7.70;0.50;;;2.90;99.90;;;;;;6162185;23;20020;-87
2022/02/01 02:03:05;;;;;;;8.93;0.73;;;2.90;99.90;;;;;;6186510;23;20013;-87
2022/02/01 02:05:31;;;;;;;8.73;0.63;;;2.90;99.90;;;;;;6187003;23;19996;-88
2022/02/01 02:07:57;;;;;;;4.63;0.40;;;2.90;99.90;;;;;;6161422;23;20051;-87
2022/02/01 02:10:29;;;;;;;9.23;0.50;;;2.90;99.90;;;;;;6162597;23;20051;-90
2022/02/01 02:13:04;;;;;;;9.82;0.40;;;2.90;99.90;;;;;;6186428;23;20004;-87
2022/02/01 02:15:49;;;;;;;11.68;0.52;;;2.90;99.90;;;;;;6162248;23;20187;-89
2022/02/01 02:18:18;;;;;;;11.18;0.50;;;3.00;99.90;;;;;;6162255;23;20012;-86
2022/02/01 02:20:48;;;;;;;8.90;0.80;;;3.00;99.90;;;;;;6186742;23;20016;-87
2022/02/01 02:23:14;;;;;;;12.73;0.73;;;3.00;99.90;;;;;;6160707;23;20012;-87
2022/02/01 02:25:40;;;;;;;12.68;0.57;;;3.00;99.90;;;;;;6162019;23;20104;-88
2022/02/01 02:28:08;;;;;;;10.80;0.60;;;3.00;99.90;;;;;;6186713;23;20020;-87
2022/02/01 02:30:34;;;;;;;9.30;0.47;;;3.00;99.90;;;;;;6162265;23;20008;-88
2022/02/01 02:33:10;;;;;;;9.20;1.25;;;3.00;99.90;;;;;;6161327;23;20475;-86
2022/02/01 02:35:41;;;;;;;13.27;0.70;;;3.00;99.90;;;;;;6161929;23;20004;-85
2022/02/01 02:38:09;;;;;;;6.93;0.32;;;3.10;99.90;;;;;;6161583;23;20009;-86
2022/02/01 02:41:01;;;;;;;7.72;0.50;;;3.10;99.90;;;;;;6186265;23;20001;-86
2022/02/01 02:46:12;;;;;;;8.38;0.40;;;3.10;99.90;;;;;;6186859;23;20005;-86
2022/02/01 02:48:37;;;;;;;9.27;0.40;;;3.10;99.90;;;;;;6162193;23;20005;-86
2022/02/01 02:51:03;;;;;;;12.45;0.40;;;3.10;99.90;;;;;;6162180;23;20012;-87
2022/02/01 02:53:29;;;;;;;9.00;0.40;;;3.20;99.90;;;;;;6162275;23;20013;-87
2022/02/01 02:55:54;;;;;;;9.20;0.75;;;3.20;99.90;;;;;;6163705;23;20012;-86
2022/02/01 02:58:20;;;;;;;6.95;0.40;;;3.20;99.90;;;;;;6163470;23;20325;-86
2022/02/01 03:00:47;;;;;;;10.35;0.70;;;3.20;99.90;;;;;;6163348;23;20027;-85
2022/02/01 03:03:12;;;;;;;10.52;0.50;;;3.20;99.90;;;;;;6188103;23;20418;-87
2022/02/01 03:05:38;;;;;;;7.53;0.50;;;3.20;99.90;;;;;;6162987;23;20009;-85
2022/02/01 03:08:04;;;;;;;3.72;0.47;;;3.20;99.90;;;;;;6188268;23;20017;-86
2022/02/01 03:10:29;;;;;;;11.43;1.27;;;3.20;99.90;;;;;;6163706;23;20001;-85
2022/02/01 03:13:08;;;;;;;9.02;0.50;;;3.20;99.90;;;;;;6163403;23;20083;-87
2022/02/01 03:15:45;;;;;;;9.38;0.40;;;3.20;99.90;;;;;;6163362;23;20328;-87
2022/02/01 03:20:55;;;;;;;5.32;0.20;;;3.20;99.90;;;;;;6187541;23;20334;-87
2022/02/01 03:23:21;;;;;;;10.32;0.40;;;3.10;99.90;;;;;;6163950;23;20013;-85
2022/02/01 03:25:46;;;;;;;13.38;0.70;;;3.10;99.90;;;;;;6163687;23;20012;-85
2022/02/01 03:28:12;;;;;;;5.30;0.30;;;3.20;99.90;;;;;;6163200;23;20021;-86
2022/02/01 03:30:38;;;;;;;5.90;0.30;;;3.20;99.90;;;;;;6163336;23;20060;-86
2022/02/01 03:33:03;;;;;;;6.28;0.60;;;3.20;99.90;;;;;;6162895;23;20048;-86
2022/02/01 03:35:29;;;;;;;7.45;0.40;;;3.20;99.90;;;;;;6162964;23;20438;-87
2022/02/01 03:37:57;;;;;;;3.83;0.20;;;3.20;99.90;;;;;;6163603;23;20004;-87
2022/02/01 03:40:22;;;;;;;4.97;0.35;;;3.10;99.90;;;;;;6163489;23;20009;-85
2022/02/01 03:42:48;;;;;;;2.30;0.15;;;3.10;99.90;;;;;;6162029;23;20035;-86
2022/02/01 03:45:13;;;;;;;5.30;0.30;;;3.10;99.90;;;;;;6163515;23;20008;-86
2022/02/01 03:47:39;;;;;;;6.78;0.40;;;3.10;99.90;;;;;;6162856;23;20044;-85
2022/02/01 03:50:07;;;;;;;8.95;0.38;;;3.10;99.90;;;;;;6187564;23;20385;-85
2022/02/01 03:52:33;;;;;;;3.33;0.52;;;3.10;99.90;;;;;;6162778;23;20039;-85
2022/02/01 03:54:58;;;;;;;5.82;0.30;;;3.10;99.90;;;;;;6162563;23;20013;-85
2022/02/01 03:57:24;;;;;;;7.72;0.30;;;3.20;99.90;;;;;;6163056;23;20004;-85
2022/02/01 03:59:50;;;;;;;5.97;0.52;;;3.20;99.90;;;;;;6162935;23;20476;-86
2022/02/01 04:02:16;;;;;;;3.05;0.22;;;3.20;99.90;;;;;;6163523;23;20005;-86
2022/02/01 04:04:42;;;;;;;8.07;0.45;;;3.20;99.90;;;;;;6161936;23;20001;-85
2022/02/01 04:07:09;;;;;;;6.68;0.60;;;3.20;99.90;;;;;;6163103;23;20087;-85
2022/02/01 04:09:35;;;;;;;6.60;0.30;;;3.30;99.90;;;;;;6187947;23;20006;-86
2022/02/01 04:12:03;;;;;;;6.57;0.22;;;3.30;99.90;;;;;;6187473;23;20047;-86
2022/02/01 04:14:32;;;;;;;10.45;0.40;;;3.30;99.90;;;;;;6187659;23;20325;-87
2022/02/01 04:17:01;;;;;;;5.40;0.20;;;3.30;99.90;;;;;;6162610;23;20008;-86
2022/02/01 04:19:29;;;;;;;5.00;0.30;;;3.30;99.90;;;;;;6162694;23;20004;-87
2022/02/01 04:22:01;;;;;;;6.30;0.40;;;3.30;99.90;;;;;;6162910;23;20005;-88
2022/02/01 04:24:28;;;;;;;5.85;0.30;;;3.40;99.90;;;;;;6162433;23;20004;-86
2022/02/01 04:26:54;;;;;;;2.83;0.20;;;3.40;99.90;;;;;;6162683;23;20325;-87
2022/02/01 04:29:20;;;;;;;4.57;0.30;;;3.40;99.90;;;;;;6163363;23;20036;-87
2022/02/01 04:31:46;;;;;;;7.60;0.30;;;3.40;99.90;;;;;;6162895;23;20035;-87
2022/02/01 04:34:12;;;;;;;4.68;0.28;;;3.50;99.90;;;;;;6161923;23;20008;-87
2022/02/01 04:36:38;;;;;;;6.97;0.47;;;3.50;99.90;;;;;;6163274;23;20552;-87
2022/02/01 04:39:04;;;;;;;3.85;0.20;;;3.50;99.90;;;;;;6162453;23;20020;-87
2022/02/01 04:41:30;;;;;;;8.27;0.30;;;3.60;99.90;;;;;;6162151;23;20015;-86
2022/02/01 04:43:58;;;;;;;4.68;0.30;;;3.60;99.90;;;;;;6187256;23;20345;-87
2022/02/01 04:46:23;;;;;;;9.05;0.30;;;3.60;99.90;;;;;;6162704;23;20005;-87
2022/02/01 04:48:49;;;;;;;12.82;0.30;;;3.60;99.90;;;;;;6186688;23;20013;-87
2022/02/01 04:51:16;;;;;;;4.32;0.55;;;3.60;99.90;;;;;;6162509;23;20012;-88
2022/02/01 04:53:43;;;;;;;6.05;0.28;;;3.70;99.90;;;;;;6162367;23;20062;-86
2022/02/01 04:56:09;;;;;;;1.92;0.40;;;3.60;99.90;;;;;;6163192;23;20015;-86
2022/02/01 04:58:34;;;;;;;3.17;0.20;;;3.60;99.90;;;;;;6187779;23;20085;-87
2022/02/01 05:01:00;;;;;;;4.45;0.32;;;3.50;99.90;;;;;;6162552;23;20062;-86
2022/02/01 05:03:26;;;;;;;3.05;0.13;;;3.60;99.90;;;;;;6160816;23;20055;-87
2022/02/01 05:05:52;;;;;;;3.92;0.20;;;3.50;99.90;;;;;;6162599;23;20000;-86
2022/02/01 05:08:17;;;;;;;1.77;0.20;;;3.50;99.90;;;;;;6162376;23;20454;-86
2022/02/01 05:10:43;;;;;;;1.63;0.10;;;3.50;99.90;;;;;;6162505;23;20083;-85
2022/02/01 05:15:42;;;;;;;3.92;0.28;;;3.40;99.90;;;;;;6186883;23;20016;-86
2022/02/01 05:18:15;;;;;;;3.03;0.20;;;3.40;99.90;;;;;;6187299;23;20000;-86
2022/02/01 05:23:24;;;;;;;5.10;0.57;;;3.30;99.90;;;;;;6186499;23;20471;-86
2022/02/01 05:25:51;;;;;;;2.92;0.30;;;3.30;99.90;;;;;;6162268;23;20009;-86
2022/02/01 05:28:17;;;;;;;1.38;0.10;;;3.30;99.90;;;;;;6162204;23;20012;-87
2022/02/01 05:30:43;;;;;;;3.35;0.20;;;3.20;99.90;;;;;;6161603;23;20337;-87
2022/02/01 05:33:09;;;;;;;5.53;0.93;;;3.20;99.90;;;;;;6161634;23;20091;-88
2022/02/01 05:35:34;;;;;;;5.22;0.20;;;3.20;99.90;;;;;;6161993;23;20366;-85
2022/02/01 05:38:00;;;;;;;5.25;0.30;;;3.20;99.90;;;;;;6187367;23;20008;-87
2022/02/01 05:40:26;;;;;;;5.10;0.32;;;3.20;99.90;;;;;;6187407;23;20047;-87
2022/02/01 05:43:11;;;;;;;3.78;0.30;;;3.20;99.90;;;;;;6186412;23;20043;-87
2022/02/01 05:45:37;;;;;;;4.82;0.88;;;3.20;99.90;;;;;;6186528;23;20058;-85
2022/02/01 05:48:03;;;;;;;7.55;0.30;;;3.20;99.90;;;;;;6186876;23;20040;-85
2022/02/01 05:50:34;;;;;;;3.70;0.30;;;3.20;99.90;;;;;;6161373;23;20445;-86
2022/02/01 05:52:59;;;;;;;;;;;3.20;99.90;;;;;;6162114;23;20013;-85
2022/02/01 05:55:25;;;;;;;5.22;0.20;;;3.20;99.90;;;;;;6161972;23;19904;-85
2022/02/01 05:57:53;;;;;;;4.40;0.30;;;3.20;99.90;;;;;;6161579;23;20100;-85
2022/02/01 06:00:19;;;;;;;4.45;0.20;;;3.30;99.90;;;;;;6186590;23;20095;-85
2022/02/01 06:02:46;;;;;;;4.13;0.30;;;3.30;99.90;;;;;;6184604;23;20417;-86
2022/02/01 06:05:15;;;;;;;2.60;0.30;;;3.40;99.90;;;;;;6162323;23;20009;-85
2022/02/01 06:07:41;;;;;;;4.55;0.38;;;3.40;99.90;;;;;;6161258;23;20153;-85
2022/02/01 06:10:07;;;;;;;8.07;0.40;;;3.40;99.90;;;;;;6158111;23;20080;-84
2022/02/01 06:12:44;;;;;;;10.98;0.80;;;3.50;99.90;;;;;;6156095;23;20118;-86
2022/02/01 06:15:11;;;;;;;5.35;0.40;;;3.50;99.90;;;;;;6160104;23;20340;-85
2022/02/01 06:17:37;;;;;;;6.05;0.50;;;3.50;99.90;;;;;;6158139;23;20005;-84
2022/02/01 06:20:04;;;;;;;6.00;0.40;;;3.50;99.90;;;;;;6184069;23;20009;-86
2022/02/01 06:22:30;;;;;;;4.97;0.30;;;3.60;99.90;;;;;;6161626;23;20040;-85
2022/02/01 06:24:58;;;;;;;7.63;0.70;;;3.60;99.90;;;;;;6160066;23;20013;-85
2022/02/01 06:27:28;;;;;;;12.40;0.70;;;3.60;99.90;;;;;;6157654;23;20444;-86
2022/02/01 06:29:54;;;;;;;10.90;0.97;;;3.70;99.90;;;;;;6158564;23;20099;-85
2022/02/01 06:32:20;;;;;;;3.53;0.73;;;3.80;99.90;;;;;;6163131;23;20012;-86
2022/02/01 06:34:46;;;;;;;9.05;0.70;;;3.70;99.90;;;;;;6188147;23;20049;-84
2022/02/01 06:37:12;;;;;;;7.63;0.82;;;3.70;99.90;;;;;;6188167;23;20009;-86
2022/02/01 06:39:38;;;;;;;9.85;0.70;;;3.80;99.90;;;;;;6161995;23;20008;-83
2022/02/01 06:42:05;;;;;;;8.90;0.73;;;3.70;99.90;;;;;;6155811;23;20095;-85
2022/02/01 06:44:31;;;;;;;10.38;0.98;;;3.70;99.90;;;;;;6187160;23;20059;-84
2022/02/01 06:46:56;;;;;;;7.88;1.17;;;3.80;99.90;;;;;;6162736;23;20016;-84
2022/02/01 06:49:22;;;;;;;15.13;1.25;;;3.80;99.90;;;;;;6162644;23;20455;-84
2022/02/01 06:51:48;;;;;;;10.52;1.00;;;3.80;99.90;;;;;;6187520;23;20090;-85
2022/02/01 06:54:14;;;;;;;8.27;0.70;;;3.90;99.90;;;;;;6162378;23;20477;-84
2022/02/01 06:56:39;;;;;;;15.82;2.15;;;3.90;99.90;;;;;;6162932;23;20008;-85
2022/02/01 06:59:06;;;;;;;8.35;1.20;;;3.90;99.90;;;;;;6187727;23;20374;-84
2022/02/01 07:01:32;;;;;;;8.82;1.33;;;3.90;99.90;;;;;;6155835;23;20092;-84
2022/02/01 07:03:59;;;;;;;12.88;1.77;;;3.90;99.90;;;;;;6183588;23;20008;-84
2022/02/01 07:06:25;;;;;;;8.02;1.00;;;4.00;99.90;;;;;;6161837;23;20046;-84
2022/02/01 07:08:52;;;;;;;14.35;2.40;;;4.00;99.90;;;;;;6161911;23;20052;-86
2022/02/01 07:11:19;;;;;;;9.05;1.13;;;4.00;99.90;;;;;;6187217;23;20433;-86
2022/02/01 07:13:47;;;;;;;12.65;2.13;;;4.10;99.90;;;;;;6186004;23;20013;-85
2022/02/01 07:16:13;;;;;;;10.38;1.88;;;4.10;99.90;;;;;;6162084;23;20039;-86
2022/02/01 07:18:39;;;;;;;12.98;1.77;;;4.10;99.90;;;;;;6161544;23;20062;-86
2022/02/01 07:21:05;;;;;;;8.20;1.52;;;4.10;99.90;;;;;;6186659;23;20005;-86
2022/02/01 07:23:32;;;;;;;7.28;1.15;;;4.10;99.90;;;;;;6162265;23;20024;-88
2022/02/01 07:25:58;;;;;;;4.50;1.10;;;4.00;99.90;;;;;;6160485;23;20128;-86
2022/02/01 07:28:27;;;;;;;9.75;1.60;;;4.00;99.90;;;;;;6212879;23;20016;-85
2022/02/01 07:30:53;;;;;;;10.48;1.73;;;4.00;99.90;;;;;;6161377;23;20036;-85
2022/02/01 07:33:19;;;;;;;10.98;2.42;;;4.00;99.90;;;;;;6162035;23;20012;-85
2022/02/01 07:35:47;;;;;;;5.57;1.63;;;4.00;99.90;;;;;;6160956;23;20068;-86
2022/02/01 07:38:17;;;;;;;5.55;2.15;;;4.00;99.90;;;;;;6161138;23;20082;-86
2022/02/01 07:40:44;;;;;;;5.13;0.95;;;4.00;99.90;;;;;;6186329;23;20398;-87
2022/02/01 07:43:10;;;;;;;6.53;1.52;;;4.00;99.90;;;;;;6162043;23;20011;-86
2022/02/01 07:45:39;;;;;;;3.90;1.38;;;4.00;99.90;;;;;;6185462;23;20013;-88
2022/02/01 07:48:04;;;;;;;6.97;1.80;;;4.00;99.90;;;;;;6162043;23;20357;-87
2022/02/01 07:50:32;;;;;;;10.52;2.90;;;4.10;99.90;;;;;;6161293;23;20076;-88
2022/02/01 07:52:59;;;;;;;7.18;2.65;;;4.10;99.90;;;;;;6186605;23;20016;-86
2022/02/01 07:55:26;;;;;;;11.75;3.60;;;4.10;99.90;;;;;;6161422;23;20071;-87
2022/02/01 07:57:52;;;;;;;11.13;5.35;;;4.10;99.90;;;;;;6162423;23;20008;-88
2022/02/01 08:00:19;;;;;;;13.55;4.60;;;4.20;99.90;;;;;;6186977;23;20021;-86
2022/02/01 08:02:44;;;;;;;9.73;3.58;;;4.20;99.90;;;;;;6186833;23;20035;-85
2022/02/01 08:05:11;;;;;;;14.00;3.97;;;4.20;99.90;;;;;;6162337;23;20361;-85
2022/02/01 08:07:37;;;;;;;11.25;4.85;;;4.20;99.90;;;;;;6162363;23;20035;-88
2022/02/01 08:10:10;;;;;;;13.43;6.30;;;4.30;99.90;;;;;;6162093;23;20011;-87
2022/02/01 08:17:56;;;;;;;15.02;7.93;;;4.30;99.90;;;;;;6186392;23;20433;-86
2022/02/01 08:20:31;;;;;;;14.27;6.85;;;4.40;99.90;;;;;;6214055;23;20074;-86
2022/02/01 08:25:25;;;;;;;11.25;5.95;;;4.40;99.90;;;;;;6213691;23;20000;-87
2022/02/01 08:27:55;;;;;;;15.80;6.43;;;4.40;99.90;;;;;;6161420;23;20392;-88
2022/02/01 08:30:21;;;;;;;11.63;6.43;;;4.40;99.90;;;;;;6186226;23;20437;-87
2022/02/01 08:32:47;;;;;;;10.55;6.90;;;4.40;99.90;;;;;;6162195;23;20032;-87
2022/02/01 08:35:13;;;;;;;15.73;8.77;;;4.50;99.90;;;;;;6161847;23;20004;-87
2022/02/01 08:37:38;;;;;;;14.15;8.70;;;4.50;99.90;;;;;;6161330;23;20059;-87
2022/02/01 08:40:04;;;;;;;11.60;6.88;;;4.50;99.90;;;;;;6158083;23;20349;-85
2022/02/01 08:42:31;;;;;;;10.95;6.55;;;4.50;99.90;;;;;;6184748;23;20009;-88
2022/02/01 08:44:57;;;;;;;18.75;10.18;;;4.50;99.90;;;;;;6186402;23;20031;-86
2022/02/01 08:47:23;;;;;;;18.15;9.57;;;4.60;99.90;;;;;;6160620;23;20107;-86
2022/02/01 08:49:49;;;;;;;13.80;8.02;;;4.60;99.90;;;;;;6160970;23;20460;-86
2022/02/01 08:52:27;;;;;;;17.33;10.43;;;4.60;99.90;;;;;;6161448;23;20015;-86
2022/02/01 08:54:54;;;;;;;15.93;9.13;;;4.60;99.90;;;;;;6186409;23;20031;-86
2022/02/01 08:57:23;;;;;;;12.40;7.30;;;4.60;99.90;;;;;;6160807;23;20425;-85
2022/02/01 08:59:51;;;;;;;13.90;7.85;;;4.60;99.90;;;;;;6160391;23;20019;-88
2022/02/01 09:02:19;;;;;;;14.63;8.27;;;4.70;99.90;;;;;;6162092;23;20008;-88
2022/02/01 09:04:44;;;;;;;12.07;7.57;;;4.60;99.90;;;;;;6161000;23;20007;-86
2022/02/01 09:07:10;;;;;;;14.98;8.85;;;4.70;99.90;;;;;;6161211;23;20020;-84
2022/02/01 09:09:37;;;;;;;11.15;7.47;;;4.70;99.90;;;;;;6211356;23;20376;-87
2022/02/01 09:12:03;;;;;;;15.23;8.35;;;4.70;99.90;;;;;;6185495;23;20012;-86
2022/02/01 09:14:30;;;;;;;12.85;7.85;;;4.70;99.90;;;;;;6185394;23;20036;-85
2022/02/01 09:16:56;;;;;;;14.02;8.05;;;4.70;99.90;;;;;;6161615;23;20357;-87
2022/02/01 09:19:22;;;;;;;18.10;10.18;;;4.80;99.90;;;;;;6186635;23;20051;-87
2022/02/01 09:21:47;;;;;;;12.10;7.47;;;4.80;99.90;;;;;;6185880;23;20482;-88
2022/02/01 09:24:13;;;;;;;12.63;8.15;;;4.80;99.90;;;;;;6160365;23;20004;-88
2022/02/01 09:26:39;;;;;;;12.65;8.18;;;4.80;99.90;;;;;;6160177;23;20008;-85
2022/02/01 09:29:06;;;;;;;15.25;10.13;;;4.80;99.90;;;;;;6161175;23;20019;-86
2022/02/01 09:31:32;;;;;;;13.23;8.57;;;4.80;99.90;;;;;;6138415;23;20027;-85
2022/02/01 09:33:58;;;;;;;11.60;7.85;;;4.80;99.90;;;;;;6183367;23;20008;-85
2022/02/01 09:36:24;;;;;;;12.60;7.50;;;4.90;99.90;;;;;;6185724;23;20013;-87
2022/02/01 09:38:52;;;;;;;8.90;6.65;;;4.90;99.90;;;;;;6160016;23;20111;-86
2022/02/01 09:41:18;;;;;;;8.93;6.68;;;4.90;99.90;;;;;;6185271;23;20013;-87
2022/02/01 09:43:44;;;;;;;10.18;7.93;;;4.90;99.90;;;;;;6184400;23;20009;-86
2022/02/01 09:46:10;;;;;;;7.85;6.05;;;5.00;99.90;;;;;;6185360;23;20005;-91
2022/02/01 09:48:36;;;;;;;11.10;7.10;;;5.00;99.90;;;;;;6184452;23;20078;-85
2022/02/01 09:51:04;;;;;;;11.10;8.90;;;5.00;99.90;;;;;;6185018;23;20381;-85
2022/02/01 09:53:30;;;;;;;7.85;6.25;;;5.00;99.90;;;;;;6157984;23;20445;-88
2022/02/01 09:55:56;;;;;;;8.65;6.88;;;5.10;99.90;;;;;;6160115;23;20015;-85
2022/02/01 09:58:35;;;;;;;9.63;7.60;;;5.10;99.90;;;;;;6185051;23;20005;-85
2022/02/01 10:01:13;;;;;;;9.68;6.35;;;5.10;99.90;;;;;;6159505;23;20052;-87
2022/02/01 10:03:39;;;;;;;12.13;9.40;;;5.10;99.90;;;;;;6158996;23;20087;-85
2022/02/01 10:06:11;;;;;;;10.15;8.55;;;5.20;99.90;;;;;;6159518;23;20350;-86
2022/02/01 10:08:38;;;;;;;11.27;8.50;;;5.10;99.90;;;;;;6184463;23;20055;-86
2022/02/01 10:11:08;;;;;;;14.73;10.57;;;5.20;99.90;;;;;;6210094;23;20008;-84
2022/02/01 10:13:37;;;;;;;12.93;9.32;;;5.20;99.90;;;;;;6159632;23;20438;-88
2022/02/01 10:16:14;;;;;;;11.75;8.57;;;5.20;99.90;;;;;;6160230;23;20161;-86
2022/02/01 10:18:39;;;;;;;10.23;8.15;;;5.30;99.90;;;;;;6160328;23;20082;-86
2022/02/01 10:21:14;;;;;;;9.45;7.88;;;5.30;99.90;;;;;;6184898;23;20425;-88
2022/02/01 10:23:41;;;;;;;10.68;9.38;;;5.30;99.90;;;;;;6159137;23;20005;-86
2022/02/01 10:26:20;;;;;;;12.23;9.68;;;5.40;99.90;;;;;;6185310;23;20012;-87
2022/02/01 10:29:12;;;;;;;11.82;9.60;;;5.40;99.90;;;;;;6184650;23;20012;-87
2022/02/01 10:31:45;;;;;;;13.57;11.25;;;5.40;99.90;;;;;;6144647;23;20024;-88
2022/02/01 10:34:28;;;;;;;13.27;9.32;;;5.40;99.90;;;;;;6160631;23;20020;-85
2022/02/01 10:37:03;;;;;;;15.15;10.52;;;5.50;99.90;;;;;;6159344;23;20028;-85
2022/02/01 10:39:31;;;;;;;11.82;9.15;;;5.50;99.90;;;;;;6184369;23;20462;-84
2022/02/01 10:42:04;;;;;;;9.32;7.13;;;5.50;99.90;;;;;;6160390;23;20009;-84
2022/02/01 10:44:40;;;;;;;12.50;8.55;;;5.60;99.90;;;;;;6159170;23;20457;-85
2022/02/01 10:47:07;;;;;;;13.30;9.88;;;5.60;99.90;;;;;;6185072;23;20035;-85
2022/02/01 10:49:35;;;;;;;11.30;8.63;;;5.70;99.90;;;;;;6159223;23;20087;-85
2022/02/01 10:52:04;;;;;;;11.40;8.70;;;5.70;99.90;;;;;;6184689;23;20004;-85
2022/02/01 10:54:32;;;;;;;13.40;9.90;;;5.80;99.90;;;;;;6160198;23;20012;-85
2022/02/01 10:56:58;;;;;;;13.10;9.48;;;5.80;99.90;;;;;;6184574;23;20040;-88
2022/02/01 10:59:24;;;;;;;11.73;9.07;;;5.80;99.90;;;;;;6184087;23;20019;-84
2022/02/01 11:01:51;;;;;;;12.15;8.50;;;5.80;99.90;;;;;;6184386;23;20112;-85
2022/02/01 11:04:19;;;;;;;10.95;6.43;;;5.90;99.90;;;;;;6159524;23;20012;-88
2022/02/01 11:06:47;;;;;;;10.13;7.15;;;5.90;99.90;;;;;;6159853;23;20341;-88
2022/02/01 11:09:13;;;;;;;9.35;6.38;;;6.00;99.90;;;;;;6159932;23;20012;-85
2022/02/01 11:11:52;;;;;;;7.95;5.57;;;6.00;99.90;;;;;;6159297;23;20000;-88
2022/02/01 11:14:25;;;;;;;7.88;6.53;;;6.10;99.90;;;;;;6160606;23;20023;-86
2022/02/01 11:17:02;;;;;;;8.05;5.00;;;6.20;99.90;;;;;;6161470;23;20071;-86
2022/02/01 11:19:28;;;;;;;8.45;5.78;;;6.20;99.90;;;;;;6161582;23;20011;-87
2022/02/01 11:21:56;;;;;;;7.82;5.85;;;6.30;99.90;;;;;;6161194;23;20012;-90
2022/02/01 11:24:38;;;;;;;6.57;4.30;;;6.30;99.90;;;;;;6162056;23;20375;-86
2022/02/01 11:27:20;;;;;;;5.20;4.05;;;6.30;99.90;;;;;;6162478;23;20009;-88
2022/02/01 11:32:19;;;;;;;6.18;3.60;;;6.40;99.90;;;;;;6170146;23;20387;-91
2022/02/01 11:34:45;;;;;;;8.02;4.57;;;6.40;99.90;;;;;;6182708;23;20013;-87
2022/02/01 11:37:15;;;;;;;6.38;4.05;;;6.50;99.90;;;;;;6160497;23;20326;-88
2022/02/01 11:39:53;;;;;;;6.43;3.53;;;6.50;99.90;;;;;;6160487;23;20019;-84
2022/02/01 11:42:21;;;;;;;5.53;3.75;;;6.50;99.90;;;;;;6160629;23;20072;-88
2022/02/01 11:44:57;;;;;;;5.35;3.58;;;6.60;99.90;;;;;;6160179;23;20030;-85
2022/02/01 11:47:36;;;;;;;6.85;3.95;;;6.60;99.90;;;;;;6184984;23;20309;-85
2022/02/01 11:50:13;;;;;;;4.57;3.42;;;6.60;99.90;;;;;;6160346;23;20063;-84
2022/02/01 11:52:48;;;;;;;3.80;3.38;;;6.60;99.90;;;;;;6159973;23;20033;-84
2022/02/01 11:55:15;;;;;;;3.92;3.40;;;6.70;99.90;;;;;;6160586;23;20008;-85
2022/02/01 11:57:43;;;;;;;5.32;4.18;;;6.70;99.90;;;;;;6185623;23;20051;-89
2022/02/01 12:00:23;;;;;;;5.40;4.15;;;6.70;99.90;;;;;;6161296;23;20441;-86
2022/02/01 12:02:52;;;;;;;4.18;3.58;;;6.80;99.90;;;;;;6185221;23;20017;-85
2022/02/01 12:05:28;;;;;;;5.20;3.92;;;6.90;99.90;;;;;;6185350;23;20012;-88
2022/02/01 12:08:11;;;;;;;4.68;3.38;;;6.90;99.90;;;;;;6160895;23;20035;-87
2022/02/01 12:10:49;;;;;;;4.80;3.60;;;6.90;99.90;;;;;;6160593;23;20001;-84
2022/02/01 12:13:26;;;;;;;4.97;3.63;;;7.00;99.90;;;;;;6211774;23;20019;-84
2022/02/01 12:15:54;;;;;;;4.60;2.90;;;7.00;99.90;;;;;;6184679;23;20372;-86
2022/02/01 12:18:29;;;;;;;4.00;2.40;;;7.00;99.90;;;;;;6159721;23;20009;-82
2022/02/01 12:21:32;;;;;;;4.57;3.38;;;7.00;99.90;;;;;;6160622;23;20012;-83
2022/02/01 12:24:00;;;;;;;4.43;2.90;;;7.10;99.90;;;;;;6185435;23;20012;-82
2022/02/01 12:26:33;;;;;;;4.15;3.03;;;7.10;99.90;;;;;;6211669;23;20015;-83
2022/02/01 12:29:03;;;;;;;6.55;3.38;;;7.10;99.90;;;;;;6160172;23;20464;-83
2022/02/01 12:31:30;;;;;;;6.28;3.83;;;7.10;99.90;;;;;;6159510;23;20009;-88
2022/02/01 12:33:57;;;;;;;3.67;2.95;;;7.20;99.90;;;;;;6145485;23;20136;-82
2022/02/01 12:36:27;;;;;;;6.55;3.58;;;7.10;99.90;;;;;;6160769;23;20004;-85
2022/02/01 12:39:04;;;;;;;6.50;4.97;;;7.20;99.90;;;;;;6161026;23;20021;-87
2022/02/01 12:41:40;;;;;;;6.07;4.45;;;7.20;99.90;;;;;;6159979;23;20020;-88
2022/02/01 12:49:15;;;;;;;8.25;5.53;;;7.30;99.90;;;;;;6184591;23;20162;-85
2022/02/01 12:51:47;;;;;;;12.45;6.15;;;7.40;99.90;;;;;;6159598;23;20079;-83
2022/02/01 12:54:37;;;;;;;9.05;5.68;;;7.40;99.90;;;;;;6186302;23;20187;-88
2022/02/01 12:57:17;;;;;;;12.25;7.43;;;7.50;99.90;;;;;;6160349;23;20019;-84
2022/02/01 12:59:44;;;;;;;14.18;7.57;;;7.60;99.90;;;;;;6155169;23;20017;-87
2022/02/01 13:02:16;;;;;;;14.15;8.05;;;7.60;99.90;;;;;;6179337;23;20012;-84
2022/02/01 13:04:42;;;;;;;16.25;8.13;;;7.70;99.90;;;;;;6154901;23;20101;-84
2022/02/01 13:07:25;;;;;;;14.30;7.47;;;7.70;99.90;;;;;;6179317;23;20020;-83
2022/02/01 13:15:27;;;;;;;15.02;7.28;;;7.90;99.90;;;;;;6179880;23;20012;-88
2022/02/01 13:20:05;;;;;;;19.60;6.82;;;7.90;99.90;;;;;;6155072;23;20425;-86
2022/02/01 13:21:03;;;;;;;14.70;5.97;;;7.90;99.90;;;;;;6179146;23;20020;-82
2022/02/01 13:23:43;;;;;;;14.65;5.40;;;7.90;99.90;;;;;;6154262;23;20016;-83
2022/02/01 13:26:26;;;;;;;;;;;8.00;99.90;;;;;;6155551;23;20009;-83
2022/02/01 13:28:56;;;;;;;18.95;5.60;;;8.00;99.90;;;;;;6155357;23;19920;-84
2022/02/01 13:31:26;;;;;;;13.73;4.63;;;8.00;99.90;;;;;;6181397;23;20339;-83
2022/02/01 13:34:04;;;;;;;13.43;5.45;;;8.00;99.90;;;;;;6140678;23;20020;-90
2022/02/01 13:36:48;;;;;;;13.15;4.38;;;8.10;99.90;;;;;;6154416;23;20346;-85
2022/02/01 13:39:26;;;;;;;18.05;4.72;;;8.10;99.90;;;;;;6181711;23;20063;-84
2022/02/01 13:42:03;;;;;;;14.63;4.50;;;8.10;99.90;;;;;;6178966;23;20017;-84
2022/02/01 13:44:31;;;;;;;12.07;3.83;;;8.10;99.90;;;;;;6154472;23;20509;-84
2022/02/01 13:47:08;;;;;;;12.50;4.03;;;8.10;99.90;;;;;;6181053;23;20062;-84
2022/02/01 13:49:35;;;;;;;13.00;4.70;;;8.10;99.90;;;;;;6179497;23;20013;-84
2022/02/01 13:52:01;;;;;;;19.00;4.22;;;8.20;99.90;;;;;;6155055;23;20012;-90
2022/02/01 13:54:44;;;;;;;10.68;3.10;;;8.20;99.90;;;;;;6155223;23;20043;-85
2022/02/01 13:57:19;;;;;;;16.17;3.13;;;8.30;99.90;;;;;;6154554;23;20005;-90
2022/02/01 13:59:45;;;;;;;10.95;3.10;;;8.30;99.90;;;;;;6179388;23;20047;-86
2022/02/01 14:02:19;;;;;;;10.60;3.30;;;8.40;99.90;;;;;;6179930;23;20457;-87
2022/02/01 14:05:01;;;;;;;12.05;3.03;;;8.40;99.90;;;;;;6181758;23;20029;-85
2022/02/01 14:07:52;;;;;;;10.20;2.92;;;8.40;99.90;;;;;;6181359;23;20021;-87
2022/02/01 14:10:47;;;;;;;;;;;8.50;99.90;;;;;;6180608;23;20367;-86
2022/02/01 14:26:49;;;;;;;7.75;2.42;;;8.60;99.90;;;;;;6181063;23;20009;-88
2022/02/01 14:32:05;;;;;;;10.88;1.83;;;8.50;99.90;;;;;;6179732;23;20013;-87
2022/02/01 14:34:30;;;;;;;6.75;1.33;;;8.60;99.90;;;;;;6165604;23;20446;-89
2022/02/01 14:37:04;;;;;;;11.80;1.30;;;8.60;99.90;;;;;;6180447;23;20040;-90
2022/02/01 14:43:04;;;;;;;11.40;2.60;;;8.60;99.90;;;;;;6179938;23;20083;-92
2022/02/01 14:44:59;;;;;;;6.95;1.25;;;8.60;99.90;;;;;;6179690;23;20247;-89
2022/02/01 14:47:25;;;;;;;11.38;1.63;;;8.60;99.90;;;;;;6154635;23;20048;-90
2022/02/01 14:49:52;;;;;;;12.68;2.50;;;8.60;99.90;;;;;;6181738;23;20040;-88
2022/02/01 14:52:18;;;;;;;8.25;1.30;;;8.50;99.90;;;;;;6156006;23;20521;-90
2022/02/01 14:54:48;;;;;;;12.20;2.20;;;8.60;99.90;;;;;;6181273;23;20422;-90
2022/02/01 15:06:07;;;;;;;12.65;1.42;;;8.60;99.90;;;;;;6181784;23;20453;-90